sensor_id;sensor_type;location;lat;lon;timestamp;P1;durP1;ratioP1;P2;durP2;ratioP2
4078;SDS011;2054;47.858;11.156;2022-10-16T02:31:52;4.75;;;2.10;;
4078;SDS011;2054;47.858;11.156;2022-10-16T02:34:21;2.28;;;1.90;;
4078;SDS011;2054;47.858;11.156;2022-10-16T02:36:49;4.35;;;2.10;;
4078;SDS011;2054;47.858;11.156;2022-10-16T02:39:17;4.75;;;2.28;;
4078;SDS011;2054;47.858;11.156;2022-10-16T02:41:45;5.93;;;2.55;;
4078;SDS011;2054;47.858;11.156;2022-10-16T02:44:12;4.03;;;2.33;;
4078;SDS011;2054;47.858;11.156;2022-10-16T02:46:39;6.63;;;2.30;;
4078;SDS011;2054;47.858;11.156;2022-10-16T02:49:08;2.75;;;2.00;;
4078;SDS011;2054;47.858;11.156;2022-10-16T02:51:35;3.60;;;2.30;;
4078;SDS011;2054;47.858;11.156;2022-10-16T02:54:03;4.75;;;2.85;;
4078;SDS011;2054;47.858;11.156;2022-10-16T02:56:30;2.38;;;1.95;;
4078;SDS011;2054;47.858;11.156;2022-10-16T02:58:57;3.88;;;2.50;;
4078;SDS011;2054;47.858;11.156;2022-10-16T03:01:24;2.75;;;2.00;;
4078;SDS011;2054;47.858;11.156;2022-10-16T03:03:51;1.60;;;1.50;;
4078;SDS011;2054;47.858;11.156;2022-10-16T03:06:20;1.60;;;1.50;;
4078;SDS011;2054;47.858;11.156;2022-10-16T03:08:47;2.47;;;2.00;;
4078;SDS011;2054;47.858;11.156;2022-10-16T03:11:14;4.07;;;2.55;;
4078;SDS011;2054;47.858;11.156;2022-10-16T03:13:42;1.83;;;1.73;;
4078;SDS011;2054;47.858;11.156;2022-10-16T03:16:09;3.83;;;2.03;;
4078;SDS011;2054;47.858;11.156;2022-10-16T03:18:36;3.58;;;1.90;;
4078;SDS011;2054;47.858;11.156;2022-10-16T03:21:03;3.85;;;1.83;;
4078;SDS011;2054;47.858;11.156;2022-10-16T03:23:32;3.83;;;2.80;;
4078;SDS011;2054;47.858;11.156;2022-10-16T03:25:59;2.92;;;2.60;;
4078;SDS011;2054;47.858;11.156;2022-10-16T03:28:26;3.38;;;2.40;;
4078;SDS011;2054;47.858;11.156;2022-10-16T03:30:53;3.13;;;2.10;;
4078;SDS011;2054;47.858;11.156;2022-10-16T03:33:20;2.63;;;1.95;;
4078;SDS011;2054;47.858;11.156;2022-10-16T03:35:51;3.38;;;2.25;;
4078;SDS011;2054;47.858;11.156;2022-10-16T03:38:19;4.32;;;1.98;;
4078;SDS011;2054;47.858;11.156;2022-10-16T03:40:47;2.90;;;2.17;;
4078;SDS011;2054;47.858;11.156;2022-10-16T03:43:14;2.55;;;2.05;;
4078;SDS011;2054;47.858;11.156;2022-10-16T03:45:42;3.30;;;2.10;;
4078;SDS011;2054;47.858;11.156;2022-10-16T03:48:09;4.22;;;2.10;;
4078;SDS011;2054;47.858;11.156;2022-10-16T03:50:36;2.92;;;2.20;;
4078;SDS011;2054;47.858;11.156;2022-10-16T03:53:03;2.90;;;2.28;;
4078;SDS011;2054;47.858;11.156;2022-10-16T03:55:31;2.35;;;1.85;;
4078;SDS011;2054;47.858;11.156;2022-10-16T03:57:59;4.22;;;1.98;;
4078;SDS011;2054;47.858;11.156;2022-10-16T04:00:26;3.78;;;1.58;;
4078;SDS011;2054;47.858;11.156;2022-10-16T04:02:54;2.00;;;1.55;;
4078;SDS011;2054;47.858;11.156;2022-10-16T04:05:21;2.97;;;2.25;;
4078;SDS011;2054;47.858;11.156;2022-10-16T04:07:48;2.55;;;2.00;;
4078;SDS011;2054;47.858;11.156;2022-10-16T04:10:15;4.72;;;2.90;;
4078;SDS011;2054;47.858;11.156;2022-10-16T04:12:42;2.85;;;1.83;;
4078;SDS011;2054;47.858;11.156;2022-10-16T04:15:11;2.20;;;2.00;;
4078;SDS011;2054;47.858;11.156;2022-10-16T04:17:38;4.70;;;2.38;;
4078;SDS011;2054;47.858;11.156;2022-10-16T04:20:06;2.60;;;2.38;;
4078;SDS011;2054;47.858;11.156;2022-10-16T04:22:33;3.90;;;2.83;;
4078;SDS011;2054;47.858;11.156;2022-10-16T04:25:00;3.75;;;3.30;;
4078;SDS011;2054;47.858;11.156;2022-10-16T04:27:27;3.95;;;2.78;;
4078;SDS011;2054;47.858;11.156;2022-10-16T04:29:56;5.32;;;2.72;;
4078;SDS011;2054;47.858;11.156;2022-10-16T04:32:24;2.45;;;2.20;;
4078;SDS011;2054;47.858;11.156;2022-10-16T04:34:52;2.80;;;2.33;;
4078;SDS011;2054;47.858;11.156;2022-10-16T04:37:22;2.97;;;2.25;;
4078;SDS011;2054;47.858;11.156;2022-10-16T04:39:50;4.40;;;2.35;;
4078;SDS011;2054;47.858;11.156;2022-10-16T04:42:17;3.47;;;2.50;;
4078;SDS011;2054;47.858;11.156;2022-10-16T04:44:44;2.60;;;2.40;;
4078;SDS011;2054;47.858;11.156;2022-10-16T04:47:11;2.42;;;2.22;;
4078;SDS011;2054;47.858;11.156;2022-10-16T04:49:40;2.10;;;1.90;;
4078;SDS011;2054;47.858;11.156;2022-10-16T04:52:07;5.10;;;2.20;;
4078;SDS011;2054;47.858;11.156;2022-10-16T04:54:34;4.82;;;2.20;;
4078;SDS011;2054;47.858;11.156;2022-10-16T04:57:01;4.55;;;2.40;;
4078;SDS011;2054;47.858;11.156;2022-10-16T04:59:29;3.03;;;2.45;;
4078;SDS011;2054;47.858;11.156;2022-10-16T05:01:57;3.03;;;2.42;;
4078;SDS011;2054;47.858;11.156;2022-10-16T05:04:24;7.93;;;2.50;;
4078;SDS011;2054;47.858;11.156;2022-10-16T05:06:52;3.47;;;2.85;;
4078;SDS011;2054;47.858;11.156;2022-10-16T05:09:20;5.90;;;2.60;;
4078;SDS011;2054;47.858;11.156;2022-10-16T05:11:47;3.75;;;3.08;;
4078;SDS011;2054;47.858;11.156;2022-10-16T05:14:14;4.25;;;2.95;;
4078;SDS011;2054;47.858;11.156;2022-10-16T05:16:41;5.28;;;2.72;;
4078;SDS011;2054;47.858;11.156;2022-10-16T05:19:08;3.88;;;2.20;;
4078;SDS011;2054;47.858;11.156;2022-10-16T05:21:35;2.88;;;2.35;;
4078;SDS011;2054;47.858;11.156;2022-10-16T05:24:04;3.28;;;1.95;;
4078;SDS011;2054;47.858;11.156;2022-10-16T05:26:31;3.38;;;2.20;;
4078;SDS011;2054;47.858;11.156;2022-10-16T05:28:58;2.78;;;2.05;;
4078;SDS011;2054;47.858;11.156;2022-10-16T05:31:26;5.72;;;2.70;;
4078;SDS011;2054;47.858;11.156;2022-10-16T05:33:57;3.97;;;2.50;;
4078;SDS011;2054;47.858;11.156;2022-10-16T05:36:24;2.47;;;1.95;;
4078;SDS011;2054;47.858;11.156;2022-10-16T05:38:51;2.45;;;1.67;;
4078;SDS011;2054;47.858;11.156;2022-10-16T05:41:20;4.22;;;1.63;;
4078;SDS011;2054;47.858;11.156;2022-10-16T05:43:50;3.33;;;1.50;;
4078;SDS011;2054;47.858;11.156;2022-10-16T05:46:18;2.10;;;1.63;;
4078;SDS011;2054;47.858;11.156;2022-10-16T05:48:45;3.95;;;2.63;;
4078;SDS011;2054;47.858;11.156;2022-10-16T05:51:13;2.63;;;1.80;;
4078;SDS011;2054;47.858;11.156;2022-10-16T05:53:40;2.42;;;2.00;;
4078;SDS011;2054;47.858;11.156;2022-10-16T05:56:08;4.05;;;1.90;;
4078;SDS011;2054;47.858;11.156;2022-10-16T05:58:37;5.63;;;2.30;;
4078;SDS011;2054;47.858;11.156;2022-10-16T06:01:06;3.35;;;2.40;;
4078;SDS011;2054;47.858;11.156;2022-10-16T06:03:33;5.00;;;2.60;;
4078;SDS011;2054;47.858;11.156;2022-10-16T06:06:06;3.35;;;2.05;;
4078;SDS011;2054;47.858;11.156;2022-10-16T06:08:33;3.08;;;1.95;;
4078;SDS011;2054;47.858;11.156;2022-10-16T06:11:01;3.33;;;2.20;;
4078;SDS011;2054;47.858;11.156;2022-10-16T06:13:28;4.25;;;2.47;;
4078;SDS011;2054;47.858;11.156;2022-10-16T06:15:58;3.10;;;2.50;;
4078;SDS011;2054;47.858;11.156;2022-10-16T06:18:25;8.40;;;2.65;;
4078;SDS011;2054;47.858;11.156;2022-10-16T06:20:53;3.42;;;3.13;;
4078;SDS011;2054;47.858;11.156;2022-10-16T06:23:20;5.13;;;2.40;;
4078;SDS011;2054;47.858;11.156;2022-10-16T06:25:47;5.13;;;2.38;;
4078;SDS011;2054;47.858;11.156;2022-10-16T06:28:14;5.75;;;2.88;;
4078;SDS011;2054;47.858;11.156;2022-10-16T06:30:42;5.40;;;3.30;;
4078;SDS011;2054;47.858;11.156;2022-10-16T06:33:12;10.32;;;6.60;;
4078;SDS011;2054;47.858;11.156;2022-10-16T06:35:39;6.80;;;5.07;;
4078;SDS011;2054;47.858;11.156;2022-10-16T06:38:06;5.95;;;3.95;;
4078;SDS011;2054;47.858;11.156;2022-10-16T06:40:33;5.28;;;3.17;;
4078;SDS011;2054;47.858;11.156;2022-10-16T06:43:00;5.75;;;2.90;;
4078;SDS011;2054;47.858;11.156;2022-10-16T06:45:27;5.32;;;2.60;;
4078;SDS011;2054;47.858;11.156;2022-10-16T06:47:55;4.15;;;2.90;;
4078;SDS011;2054;47.858;11.156;2022-10-16T06:50:23;3.22;;;2.55;;
4078;SDS011;2054;47.858;11.156;2022-10-16T06:52:50;3.85;;;2.40;;
4078;SDS011;2054;47.858;11.156;2022-10-16T06:55:18;2.63;;;2.20;;
4078;SDS011;2054;47.858;11.156;2022-10-16T06:57:46;3.78;;;2.58;;
4078;SDS011;2054;47.858;11.156;2022-10-16T07:00:13;3.53;;;2.28;;
4078;SDS011;2054;47.858;11.156;2022-10-16T07:02:41;3.55;;;2.72;;
4078;SDS011;2054;47.858;11.156;2022-10-16T07:05:08;2.60;;;2.40;;
4078;SDS011;2054;47.858;11.156;2022-10-16T07:07:36;3.28;;;2.50;;
4078;SDS011;2054;47.858;11.156;2022-10-16T07:10:04;6.78;;;3.22;;
4078;SDS011;2054;47.858;11.156;2022-10-16T07:12:31;6.68;;;3.70;;
4078;SDS011;2054;47.858;11.156;2022-10-16T07:14:58;8.18;;;3.92;;
4078;SDS011;2054;47.858;11.156;2022-10-16T07:17:25;5.88;;;3.75;;
4078;SDS011;2054;47.858;11.156;2022-10-16T07:19:53;5.43;;;3.35;;
4078;SDS011;2054;47.858;11.156;2022-10-16T07:22:20;4.32;;;3.13;;
4078;SDS011;2054;47.858;11.156;2022-10-16T07:24:49;4.93;;;3.08;;
4078;SDS011;2054;47.858;11.156;2022-10-16T07:27:16;4.70;;;3.00;;
4078;SDS011;2054;47.858;11.156;2022-10-16T07:29:43;4.43;;;3.55;;
4078;SDS011;2054;47.858;11.156;2022-10-16T07:32:11;7.03;;;4.80;;
4078;SDS011;2054;47.858;11.156;2022-10-16T07:34:38;4.28;;;3.40;;
4078;SDS011;2054;47.858;11.156;2022-10-16T07:37:05;7.18;;;3.78;;
4078;SDS011;2054;47.858;11.156;2022-10-16T07:39:32;6.47;;;3.67;;
4078;SDS011;2054;47.858;11.156;2022-10-16T07:42:01;5.18;;;3.63;;
4078;SDS011;2054;47.858;11.156;2022-10-16T07:44:28;4.43;;;3.25;;
4078;SDS011;2054;47.858;11.156;2022-10-16T07:46:55;4.40;;;3.25;;
4078;SDS011;2054;47.858;11.156;2022-10-16T07:49:22;4.32;;;3.42;;
4078;SDS011;2054;47.858;11.156;2022-10-16T07:51:49;4.30;;;2.97;;
4078;SDS011;2054;47.858;11.156;2022-10-16T07:54:17;3.67;;;3.05;;
4078;SDS011;2054;47.858;11.156;2022-10-16T07:56:44;4.65;;;3.22;;
4078;SDS011;2054;47.858;11.156;2022-10-16T07:59:12;4.00;;;2.70;;
4078;SDS011;2054;47.858;11.156;2022-10-16T08:01:39;2.85;;;2.47;;
4078;SDS011;2054;47.858;11.156;2022-10-16T08:04:08;2.78;;;2.42;;
4078;SDS011;2054;47.858;11.156;2022-10-16T08:06:36;5.25;;;2.78;;
4078;SDS011;2054;47.858;11.156;2022-10-16T08:09:04;5.32;;;2.63;;
4078;SDS011;2054;47.858;11.156;2022-10-16T08:11:31;5.45;;;2.95;;
4078;SDS011;2054;47.858;11.156;2022-10-16T08:13:58;5.65;;;3.20;;
4078;SDS011;2054;47.858;11.156;2022-10-16T08:16:27;3.00;;;2.67;;
4078;SDS011;2054;47.858;11.156;2022-10-16T08:18:54;3.25;;;2.83;;
4078;SDS011;2054;47.858;11.156;2022-10-16T08:21:22;6.32;;;3.20;;
4078;SDS011;2054;47.858;11.156;2022-10-16T08:23:49;5.18;;;3.40;;
4078;SDS011;2054;47.858;11.156;2022-10-16T08:26:17;4.80;;;3.17;;
4078;SDS011;2054;47.858;11.156;2022-10-16T08:28:44;4.63;;;3.05;;
4078;SDS011;2054;47.858;11.156;2022-10-16T08:31:12;4.10;;;2.92;;
4078;SDS011;2054;47.858;11.156;2022-10-16T08:33:42;3.10;;;2.42;;
4078;SDS011;2054;47.858;11.156;2022-10-16T08:36:11;4.70;;;2.85;;
4078;SDS011;2054;47.858;11.156;2022-10-16T08:38:38;4.47;;;2.67;;
4078;SDS011;2054;47.858;11.156;2022-10-16T08:43:55;3.25;;;2.72;;
4078;SDS011;2054;47.858;11.156;2022-10-16T08:46:33;3.88;;;2.55;;
4078;SDS011;2054;47.858;11.156;2022-10-16T08:49:05;2.63;;;2.25;;
4078;SDS011;2054;47.858;11.156;2022-10-16T08:51:36;3.67;;;2.20;;
4078;SDS011;2054;47.858;11.156;2022-10-16T08:54:04;3.35;;;1.70;;
4078;SDS011;2054;47.858;11.156;2022-10-16T08:56:31;4.45;;;1.90;;
4078;SDS011;2054;47.858;11.156;2022-10-16T08:58:58;2.20;;;1.88;;
4078;SDS011;2054;47.858;11.156;2022-10-16T09:01:35;2.13;;;1.95;;
4078;SDS011;2054;47.858;11.156;2022-10-16T09:04:12;3.15;;;2.30;;
4078;SDS011;2054;47.858;11.156;2022-10-16T09:06:45;2.55;;;2.10;;
4078;SDS011;2054;47.858;11.156;2022-10-16T09:09:19;2.30;;;2.10;;
4078;SDS011;2054;47.858;11.156;2022-10-16T09:11:52;2.10;;;1.88;;
4078;SDS011;2054;47.858;11.156;2022-10-16T09:14:28;2.30;;;1.75;;
4078;SDS011;2054;47.858;11.156;2022-10-16T09:17:03;2.20;;;1.90;;
4078;SDS011;2054;47.858;11.156;2022-10-16T09:19:36;2.50;;;1.85;;
4078;SDS011;2054;47.858;11.156;2022-10-16T09:22:09;2.35;;;2.08;;
4078;SDS011;2054;47.858;11.156;2022-10-16T09:24:37;5.75;;;1.77;;
4078;SDS011;2054;47.858;11.156;2022-10-16T09:27:04;2.00;;;1.80;;
4078;SDS011;2054;47.858;11.156;2022-10-16T09:29:31;3.28;;;2.00;;
4078;SDS011;2054;47.858;11.156;2022-10-16T09:32:05;2.83;;;2.40;;
4078;SDS011;2054;47.858;11.156;2022-10-16T09:34:36;4.45;;;2.30;;
4078;SDS011;2054;47.858;11.156;2022-10-16T09:37:05;2.67;;;2.00;;
4078;SDS011;2054;47.858;11.156;2022-10-16T09:39:43;2.97;;;2.40;;
4078;SDS011;2054;47.858;11.156;2022-10-16T09:42:11;4.75;;;2.08;;
4078;SDS011;2054;47.858;11.156;2022-10-16T09:44:41;2.47;;;2.08;;
4078;SDS011;2054;47.858;11.156;2022-10-16T09:47:12;3.70;;;2.47;;
4078;SDS011;2054;47.858;11.156;2022-10-16T09:49:51;2.30;;;2.10;;
4078;SDS011;2054;47.858;11.156;2022-10-16T09:52:19;2.58;;;2.25;;
4078;SDS011;2054;47.858;11.156;2022-10-16T09:54:49;3.92;;;2.38;;
4078;SDS011;2054;47.858;11.156;2022-10-16T09:57:17;2.88;;;2.35;;
4078;SDS011;2054;47.858;11.156;2022-10-16T09:59:47;2.95;;;2.35;;
4078;SDS011;2054;47.858;11.156;2022-10-16T10:02:15;2.28;;;2.08;;
4078;SDS011;2054;47.858;11.156;2022-10-16T10:04:44;3.03;;;2.30;;
4078;SDS011;2054;47.858;11.156;2022-10-16T10:07:18;3.10;;;2.47;;
4078;SDS011;2054;47.858;11.156;2022-10-16T10:09:47;4.20;;;2.30;;
4078;SDS011;2054;47.858;11.156;2022-10-16T10:12:16;2.65;;;2.28;;
4078;SDS011;2054;47.858;11.156;2022-10-16T10:14:44;4.03;;;2.42;;
4078;SDS011;2054;47.858;11.156;2022-10-16T10:17:14;2.50;;;2.30;;
4078;SDS011;2054;47.858;11.156;2022-10-16T10:19:44;2.88;;;2.40;;
4078;SDS011;2054;47.858;11.156;2022-10-16T10:22:13;2.78;;;2.22;;
4078;SDS011;2054;47.858;11.156;2022-10-16T10:24:53;4.30;;;2.33;;
4078;SDS011;2054;47.858;11.156;2022-10-16T10:27:21;2.80;;;2.22;;
4078;SDS011;2054;47.858;11.156;2022-10-16T10:29:52;2.30;;;2.10;;
4078;SDS011;2054;47.858;11.156;2022-10-16T10:32:23;2.45;;;2.25;;
4078;SDS011;2054;47.858;11.156;2022-10-16T10:35:01;2.50;;;2.10;;
4078;SDS011;2054;47.858;11.156;2022-10-16T10:37:41;2.17;;;1.88;;
4078;SDS011;2054;47.858;11.156;2022-10-16T10:40:15;2.17;;;1.98;;
4078;SDS011;2054;47.858;11.156;2022-10-16T10:42:44;4.63;;;2.00;;
4078;SDS011;2054;47.858;11.156;2022-10-16T10:45:22;2.80;;;2.00;;
4078;SDS011;2054;47.858;11.156;2022-10-16T10:47:55;2.25;;;2.05;;
4078;SDS011;2054;47.858;11.156;2022-10-16T10:50:25;2.38;;;2.00;;
4078;SDS011;2054;47.858;11.156;2022-10-16T10:52:57;2.53;;;2.17;;
4078;SDS011;2054;47.858;11.156;2022-10-16T10:55:28;4.20;;;2.60;;
4078;SDS011;2054;47.858;11.156;2022-10-16T10:58:01;3.05;;;2.42;;
4078;SDS011;2054;47.858;11.156;2022-10-16T11:00:36;3.55;;;2.53;;
4078;SDS011;2054;47.858;11.156;2022-10-16T11:03:09;2.60;;;2.10;;
4078;SDS011;2054;47.858;11.156;2022-10-16T11:05:41;4.43;;;2.13;;
4078;SDS011;2054;47.858;11.156;2022-10-16T11:08:10;4.60;;;2.15;;
4078;SDS011;2054;47.858;11.156;2022-10-16T11:10:44;6.35;;;2.83;;
4078;SDS011;2054;47.858;11.156;2022-10-16T11:13:19;5.25;;;2.50;;
4078;SDS011;2054;47.858;11.156;2022-10-16T11:15:47;1.95;;;1.70;;
4078;SDS011;2054;47.858;11.156;2022-10-16T11:18:16;3.00;;;1.90;;
4078;SDS011;2054;47.858;11.156;2022-10-16T11:20:45;2.50;;;1.40;;
4078;SDS011;2054;47.858;11.156;2022-10-16T11:23:14;1.63;;;1.52;;
4078;SDS011;2054;47.858;11.156;2022-10-16T11:25:44;1.58;;;1.48;;
4078;SDS011;2054;47.858;11.156;2022-10-16T11:28:13;1.85;;;1.73;;
4078;SDS011;2054;47.858;11.156;2022-10-16T11:30:41;2.42;;;1.40;;
4078;SDS011;2054;47.858;11.156;2022-10-16T11:33:15;1.83;;;1.50;;
4078;SDS011;2054;47.858;11.156;2022-10-16T11:35:47;1.63;;;1.52;;
4078;SDS011;2054;47.858;11.156;2022-10-16T11:38:28;1.73;;;1.48;;
4078;SDS011;2054;47.858;11.156;2022-10-16T11:41:00;1.60;;;1.50;;
4078;SDS011;2054;47.858;11.156;2022-10-16T11:43:29;3.80;;;2.33;;
4078;SDS011;2054;47.858;11.156;2022-10-16T11:46:02;2.10;;;1.90;;
4078;SDS011;2054;47.858;11.156;2022-10-16T11:48:30;3.58;;;1.90;;
4078;SDS011;2054;47.858;11.156;2022-10-16T11:51:00;1.42;;;1.20;;
4078;SDS011;2054;47.858;11.156;2022-10-16T11:53:34;5.82;;;2.35;;
4078;SDS011;2054;47.858;11.156;2022-10-16T11:56:05;4.13;;;1.10;;
4078;SDS011;2054;47.858;11.156;2022-10-16T11:58:33;1.58;;;1.02;;
4078;SDS011;2054;47.858;11.156;2022-10-16T12:01:05;1.42;;;1.00;;
4078;SDS011;2054;47.858;11.156;2022-10-16T12:03:39;1.23;;;1.00;;
4078;SDS011;2054;47.858;11.156;2022-10-16T12:06:14;2.92;;;1.50;;
4078;SDS011;2054;47.858;11.156;2022-10-16T12:08:49;0.90;;;0.90;;
4078;SDS011;2054;47.858;11.156;2022-10-16T12:11:31;0.70;;;0.70;;
4078;SDS011;2054;47.858;11.156;2022-10-16T12:14:05;0.70;;;0.70;;
4078;SDS011;2054;47.858;11.156;2022-10-16T12:16:33;1.13;;;0.90;;
4078;SDS011;2054;47.858;11.156;2022-10-16T12:19:09;0.82;;;0.82;;
4078;SDS011;2054;47.858;11.156;2022-10-16T12:21:37;0.90;;;0.90;;
4078;SDS011;2054;47.858;11.156;2022-10-16T12:24:05;0.70;;;0.70;;
4078;SDS011;2054;47.858;11.156;2022-10-16T12:26:36;1.02;;;0.93;;
4078;SDS011;2054;47.858;11.156;2022-10-16T12:29:13;1.67;;;1.00;;
4078;SDS011;2054;47.858;11.156;2022-10-16T12:31:43;0.80;;;0.80;;
4078;SDS011;2054;47.858;11.156;2022-10-16T12:34:14;0.80;;;0.80;;
4078;SDS011;2054;47.858;11.156;2022-10-16T12:36:47;0.88;;;0.73;;
4078;SDS011;2054;47.858;11.156;2022-10-16T12:39:19;1.38;;;0.90;;
4078;SDS011;2054;47.858;11.156;2022-10-16T12:41:48;2.08;;;0.73;;
4078;SDS011;2054;47.858;11.156;2022-10-16T12:44:27;0.80;;;0.80;;
4078;SDS011;2054;47.858;11.156;2022-10-16T12:46:58;1.00;;;1.00;;
4078;SDS011;2054;47.858;11.156;2022-10-16T12:49:29;1.20;;;1.10;;
4078;SDS011;2054;47.858;11.156;2022-10-16T12:51:57;0.90;;;0.90;;
4078;SDS011;2054;47.858;11.156;2022-10-16T12:54:26;1.98;;;0.90;;
4078;SDS011;2054;47.858;11.156;2022-10-16T12:57:01;0.73;;;0.73;;
4078;SDS011;2054;47.858;11.156;2022-10-16T12:59:32;2.95;;;0.82;;
4078;SDS011;2054;47.858;11.156;2022-10-16T13:02:11;0.98;;;0.98;;
4078;SDS011;2054;47.858;11.156;2022-10-16T13:04:46;1.25;;;0.90;;
4078;SDS011;2054;47.858;11.156;2022-10-16T13:07:19;1.58;;;1.00;;
4078;SDS011;2054;47.858;11.156;2022-10-16T13:09:51;0.98;;;0.90;;
4078;SDS011;2054;47.858;11.156;2022-10-16T13:12:25;0.80;;;0.80;;
4078;SDS011;2054;47.858;11.156;2022-10-16T13:15:16;1.10;;;0.90;;
4078;SDS011;2054;47.858;11.156;2022-10-16T13:17:49;1.38;;;0.88;;
4078;SDS011;2054;47.858;11.156;2022-10-16T13:20:20;0.82;;;0.80;;
4078;SDS011;2054;47.858;11.156;2022-10-16T13:22:50;0.98;;;0.98;;
4078;SDS011;2054;47.858;11.156;2022-10-16T13:25:22;1.27;;;0.88;;
4078;SDS011;2054;47.858;11.156;2022-10-16T13:27:54;1.00;;;0.93;;
4078;SDS011;2054;47.858;11.156;2022-10-16T13:30:31;4.82;;;1.27;;
4078;SDS011;2054;47.858;11.156;2022-10-16T13:33:00;2.00;;;0.93;;
4078;SDS011;2054;47.858;11.156;2022-10-16T13:35:29;1.15;;;0.98;;
4078;SDS011;2054;47.858;11.156;2022-10-16T13:38:03;0.80;;;0.80;;
4078;SDS011;2054;47.858;11.156;2022-10-16T13:40:30;0.90;;;0.90;;
4078;SDS011;2054;47.858;11.156;2022-10-16T13:43:01;1.20;;;1.10;;
4078;SDS011;2054;47.858;11.156;2022-10-16T13:45:28;1.05;;;0.95;;
4078;SDS011;2054;47.858;11.156;2022-10-16T13:48:01;1.33;;;1.23;;
4078;SDS011;2054;47.858;11.156;2022-10-16T13:50:28;1.42;;;1.00;;
4078;SDS011;2054;47.858;11.156;2022-10-16T13:53:03;1.17;;;1.00;;
4078;SDS011;2054;47.858;11.156;2022-10-16T13:55:30;1.10;;;0.90;;
4078;SDS011;2054;47.858;11.156;2022-10-16T13:58:06;1.02;;;0.93;;
4078;SDS011;2054;47.858;11.156;2022-10-16T14:00:34;1.05;;;0.90;;
4078;SDS011;2054;47.858;11.156;2022-10-16T14:03:02;1.52;;;0.88;;
4078;SDS011;2054;47.858;11.156;2022-10-16T14:05:30;1.10;;;1.00;;
4078;SDS011;2054;47.858;11.156;2022-10-16T14:07:57;1.13;;;0.93;;
4078;SDS011;2054;47.858;11.156;2022-10-16T14:10:25;3.25;;;1.25;;
4078;SDS011;2054;47.858;11.156;2022-10-16T14:12:55;1.63;;;0.90;;
4078;SDS011;2054;47.858;11.156;2022-10-16T14:15:24;0.95;;;0.80;;
4078;SDS011;2054;47.858;11.156;2022-10-16T14:17:51;1.15;;;0.93;;
4078;SDS011;2054;47.858;11.156;2022-10-16T14:20:20;1.50;;;0.90;;
4078;SDS011;2054;47.858;11.156;2022-10-16T14:22:57;0.80;;;0.80;;
4078;SDS011;2054;47.858;11.156;2022-10-16T14:25:26;1.00;;;1.00;;
4078;SDS011;2054;47.858;11.156;2022-10-16T14:27:57;1.00;;;0.80;;
4078;SDS011;2054;47.858;11.156;2022-10-16T14:30:26;0.85;;;0.85;;
4078;SDS011;2054;47.858;11.156;2022-10-16T14:32:54;0.80;;;0.80;;
4078;SDS011;2054;47.858;11.156;2022-10-16T14:35:23;0.80;;;0.80;;
4078;SDS011;2054;47.858;11.156;2022-10-16T14:37:51;0.98;;;0.98;;
4078;SDS011;2054;47.858;11.156;2022-10-16T14:40:18;1.02;;;0.98;;
4078;SDS011;2054;47.858;11.156;2022-10-16T14:42:46;1.10;;;0.90;;
4078;SDS011;2054;47.858;11.156;2022-10-16T14:45:13;2.63;;;0.85;;
4078;SDS011;2054;47.858;11.156;2022-10-16T14:47:48;0.98;;;0.98;;
4078;SDS011;2054;47.858;11.156;2022-10-16T14:50:16;1.88;;;1.17;;
4078;SDS011;2054;47.858;11.156;2022-10-16T14:52:43;1.77;;;1.10;;
4078;SDS011;2054;47.858;11.156;2022-10-16T14:55:10;2.80;;;1.50;;
4078;SDS011;2054;47.858;11.156;2022-10-16T14:57:38;1.27;;;1.17;;
4078;SDS011;2054;47.858;11.156;2022-10-16T15:00:08;1.30;;;1.00;;
4078;SDS011;2054;47.858;11.156;2022-10-16T15:02:36;2.00;;;1.25;;
4078;SDS011;2054;47.858;11.156;2022-10-16T15:05:10;2.67;;;1.40;;
4078;SDS011;2054;47.858;11.156;2022-10-16T15:07:38;2.63;;;1.40;;
4078;SDS011;2054;47.858;11.156;2022-10-16T15:10:05;3.83;;;1.63;;
4078;SDS011;2054;47.858;11.156;2022-10-16T15:12:33;5.00;;;1.75;;
4078;SDS011;2054;47.858;11.156;2022-10-16T15:15:00;2.97;;;1.52;;
4078;SDS011;2054;47.858;11.156;2022-10-16T15:17:27;3.03;;;1.85;;
4078;SDS011;2054;47.858;11.156;2022-10-16T15:19:54;3.13;;;1.60;;
4078;SDS011;2054;47.858;11.156;2022-10-16T15:22:24;2.22;;;1.35;;
4078;SDS011;2054;47.858;11.156;2022-10-16T15:24:51;1.35;;;1.20;;
4078;SDS011;2054;47.858;11.156;2022-10-16T15:27:19;2.65;;;1.05;;
4078;SDS011;2054;47.858;11.156;2022-10-16T15:29:46;4.13;;;1.05;;
4078;SDS011;2054;47.858;11.156;2022-10-16T15:32:13;1.27;;;1.17;;
4078;SDS011;2054;47.858;11.156;2022-10-16T15:34:40;1.90;;;1.10;;
4078;SDS011;2054;47.858;11.156;2022-10-16T15:37:08;2.85;;;1.52;;
4078;SDS011;2054;47.858;11.156;2022-10-16T15:39:38;2.95;;;1.58;;
4078;SDS011;2054;47.858;11.156;2022-10-16T15:42:05;2.03;;;1.30;;
4078;SDS011;2054;47.858;11.156;2022-10-16T15:44:32;2.33;;;1.52;;
4078;SDS011;2054;47.858;11.156;2022-10-16T15:46:59;2.63;;;1.42;;
4078;SDS011;2054;47.858;11.156;2022-10-16T15:49:27;2.08;;;1.15;;
4078;SDS011;2054;47.858;11.156;2022-10-16T15:51:54;3.80;;;1.85;;
4078;SDS011;2054;47.858;11.156;2022-10-16T15:54:21;5.63;;;1.20;;
4078;SDS011;2054;47.858;11.156;2022-10-16T15:56:50;4.35;;;1.30;;
4078;SDS011;2054;47.858;11.156;2022-10-16T15:59:17;1.50;;;1.10;;
4078;SDS011;2054;47.858;11.156;2022-10-16T16:01:44;2.53;;;1.20;;
4078;SDS011;2054;47.858;11.156;2022-10-16T16:04:11;2.33;;;1.27;;
4078;SDS011;2054;47.858;11.156;2022-10-16T16:06:38;2.45;;;1.17;;
4078;SDS011;2054;47.858;11.156;2022-10-16T16:09:09;2.55;;;1.60;;
4078;SDS011;2054;47.858;11.156;2022-10-16T16:11:36;4.13;;;1.38;;
4078;SDS011;2054;47.858;11.156;2022-10-16T16:14:05;3.42;;;1.20;;
4078;SDS011;2054;47.858;11.156;2022-10-16T16:16:32;3.25;;;1.30;;
4078;SDS011;2054;47.858;11.156;2022-10-16T16:19:03;7.18;;;1.17;;
4078;SDS011;2054;47.858;11.156;2022-10-16T16:21:31;2.60;;;1.08;;
4078;SDS011;2054;47.858;11.156;2022-10-16T16:23:58;3.35;;;1.20;;
4078;SDS011;2054;47.858;11.156;2022-10-16T16:26:26;2.72;;;1.30;;
4078;SDS011;2054;47.858;11.156;2022-10-16T16:28:57;2.95;;;1.35;;
4078;SDS011;2054;47.858;11.156;2022-10-16T16:31:26;1.40;;;1.10;;
4078;SDS011;2054;47.858;11.156;2022-10-16T16:33:54;2.55;;;1.23;;
4078;SDS011;2054;47.858;11.156;2022-10-16T16:36:21;5.97;;;2.25;;
4078;SDS011;2054;47.858;11.156;2022-10-16T16:38:49;2.15;;;1.42;;
4078;SDS011;2054;47.858;11.156;2022-10-16T16:41:16;5.15;;;2.03;;
4078;SDS011;2054;47.858;11.156;2022-10-16T16:43:44;3.67;;;1.30;;
4078;SDS011;2054;47.858;11.156;2022-10-16T16:46:12;4.57;;;1.88;;
4078;SDS011;2054;47.858;11.156;2022-10-16T16:48:41;3.58;;;1.92;;
4078;SDS011;2054;47.858;11.156;2022-10-16T16:51:09;5.78;;;1.60;;
4078;SDS011;2054;47.858;11.156;2022-10-16T16:53:40;2.78;;;1.52;;
4078;SDS011;2054;47.858;11.156;2022-10-16T16:56:07;15.77;;;2.05;;
4078;SDS011;2054;47.858;11.156;2022-10-16T16:58:34;6.95;;;2.20;;
4078;SDS011;2054;47.858;11.156;2022-10-16T17:01:02;7.05;;;2.10;;
4078;SDS011;2054;47.858;11.156;2022-10-16T17:03:29;8.52;;;1.70;;
4078;SDS011;2054;47.858;11.156;2022-10-16T17:05:58;4.90;;;1.85;;
4078;SDS011;2054;47.858;11.156;2022-10-16T17:08:26;5.57;;;2.05;;
4078;SDS011;2054;47.858;11.156;2022-10-16T17:10:54;10.38;;;2.50;;
4078;SDS011;2054;47.858;11.156;2022-10-16T17:13:21;2.58;;;1.75;;
4078;SDS011;2054;47.858;11.156;2022-10-16T17:15:49;4.47;;;1.50;;
4078;SDS011;2054;47.858;11.156;2022-10-16T17:18:17;4.78;;;1.90;;
4078;SDS011;2054;47.858;11.156;2022-10-16T17:20:45;7.00;;;1.65;;
4078;SDS011;2054;47.858;11.156;2022-10-16T17:23:14;6.68;;;1.70;;
4078;SDS011;2054;47.858;11.156;2022-10-16T17:25:41;2.05;;;1.42;;
4078;SDS011;2054;47.858;11.156;2022-10-16T17:28:09;3.33;;;1.75;;
4078;SDS011;2054;47.858;11.156;2022-10-16T17:30:37;5.45;;;1.60;;
4078;SDS011;2054;47.858;11.156;2022-10-16T17:33:07;8.93;;;2.00;;
4078;SDS011;2054;47.858;11.156;2022-10-16T17:35:36;6.55;;;1.80;;
4078;SDS011;2054;47.858;11.156;2022-10-16T17:38:03;3.80;;;1.50;;
4078;SDS011;2054;47.858;11.156;2022-10-16T17:43:00;3.25;;;1.40;;
4078;SDS011;2054;47.858;11.156;2022-10-16T17:45:27;4.20;;;1.73;;
4078;SDS011;2054;47.858;11.156;2022-10-16T17:47:54;2.40;;;1.50;;